createdAt,value
2023-01-10T00:01:45.009Z,46.7
2023-01-10T00:07:03.192Z,47.6
2023-01-10T00:12:21.967Z,47.7
2023-01-10T00:17:40.740Z,47.1
2023-01-10T00:22:59.503Z,47
2023-01-10T00:28:17.987Z,47.9
2023-01-10T00:33:35.966Z,47.9
2023-01-10T00:38:54.429Z,47.9
2023-01-10T00:44:12.938Z,47.9
2023-01-10T00:49:31.421Z,47.9
2023-01-10T00:54:49.366Z,47.2
2023-01-10T01:00:08.169Z,47.3
2023-01-10T01:05:26.979Z,47.7
2023-01-10T01:10:45.759Z,47.1
2023-01-10T01:16:04.517Z,47
2023-01-10T01:21:23.040Z,47.7
2023-01-10T01:26:41.527Z,47.6
2023-01-10T01:32:00.280Z,47.3
2023-01-10T01:37:18.790Z,47.8
2023-01-10T01:42:37.277Z,47.7
2023-01-10T01:47:55.775Z,47.7
2023-01-10T01:53:14.294Z,48
2023-01-10T01:58:33.051Z,48
2023-01-10T02:03:51.457Z,47.3
2023-01-10T02:09:09.822Z,47.4
2023-01-10T02:14:12.941Z,47.5
2023-01-10T02:19:31.421Z,48
2023-01-10T02:24:50.219Z,48.5
2023-01-10T02:30:08.700Z,48.9
2023-01-10T02:35:26.606Z,49
2023-01-10T02:40:44.843Z,48.8
2023-01-10T02:46:03.965Z,48.4
2023-01-10T02:51:22.215Z,49
2023-01-10T02:56:41.002Z,48.1
2023-01-10T03:01:59.641Z,48
2023-01-10T03:07:18.127Z,48.6
2023-01-10T03:12:36.908Z,48.1
2023-01-10T03:17:55.106Z,49
2023-01-10T03:23:13.894Z,48.4
2023-01-10T03:28:32.668Z,49.3
2023-01-10T03:33:51.152Z,48.6
2023-01-10T03:39:09.662Z,49.2
2023-01-10T03:44:28.446Z,48.9
2023-01-10T03:49:31.020Z,49.5
2023-01-10T03:54:49.516Z,49.4
2023-01-10T04:00:07.748Z,49.4
2023-01-10T04:05:26.047Z,49.5
2023-01-10T04:10:44.511Z,49.3
2023-01-10T04:16:03.116Z,49.6
2023-01-10T04:21:21.342Z,49.7
2023-01-10T04:26:40.859Z,48.8
2023-01-10T04:31:59.086Z,49.4
2023-01-10T04:37:17.598Z,48.6
2023-01-10T04:42:36.121Z,48.8
2023-01-10T04:47:54.634Z,48.3
2023-01-10T04:53:13.367Z,48.6
2023-01-10T04:58:31.866Z,48.7
2023-01-10T05:03:50.367Z,48.6
2023-01-10T05:09:08.979Z,48
2023-01-10T05:14:26.914Z,48.9
2023-01-10T05:19:45.703Z,47.8
2023-01-10T05:25:04.194Z,47.5
2023-01-10T05:30:22.394Z,48.6
2023-01-10T05:35:41.214Z,46.2
2023-01-10T05:41:00.117Z,47
2023-01-10T05:46:18.705Z,47.8
2023-01-10T05:51:37.571Z,47.8
2023-01-10T05:56:56.044Z,47.9
2023-01-10T06:02:15.157Z,48
2023-01-10T06:07:34.006Z,48.4
2023-01-10T06:12:52.753Z,48.7
2023-01-10T06:18:12.947Z,48.2
2023-01-10T06:23:31.455Z,48.8
2023-01-10T06:28:49.902Z,48.6
2023-01-10T06:34:08.409Z,48
2023-01-10T06:39:26.725Z,48.7
2023-01-10T06:44:44.932Z,48.8
2023-01-10T06:50:03.425Z,48.4
2023-01-10T06:55:21.943Z,48.6
2023-01-10T07:00:40.473Z,48.5
2023-01-10T07:05:59.204Z,47.6
2023-01-10T07:11:18.004Z,47.8
2023-01-10T07:16:36.789Z,47.3
2023-01-10T07:21:55.547Z,47.9
2023-01-10T07:27:14.335Z,48
2023-01-10T07:32:32.561Z,47.9
2023-01-10T07:37:51.334Z,47.6
2023-01-10T07:43:09.285Z,48.1
2023-01-10T07:48:28.045Z,47.5
2023-01-10T07:53:46.827Z,47.5
2023-01-10T07:59:04.791Z,48
2023-01-10T08:04:23.538Z,47.9
2023-01-10T08:09:42.354Z,47.6
2023-01-10T08:15:01.120Z,46.9
2023-01-10T08:20:19.617Z,47.5
2023-01-10T08:25:39.955Z,47.2
2023-01-10T08:30:59.073Z,46.9
2023-01-10T08:36:17.325Z,46.9
2023-01-10T08:41:35.794Z,47.6
2023-01-10T08:46:54.072Z,47
2023-01-10T08:52:12.271Z,47.1
2023-01-10T08:57:30.776Z,46.9
2023-01-10T09:02:49.055Z,46.8
2023-01-10T09:08:07.530Z,46.9
2023-01-10T09:13:25.758Z,46.7
2023-01-10T09:18:44.284Z,47.2
2023-01-10T09:24:02.476Z,47.4
2023-01-10T09:29:20.963Z,46.7
2023-01-10T09:34:39.766Z,47.4
2023-01-10T09:39:58.238Z,47.7
2023-01-10T09:45:16.735Z,47.5
2023-01-10T09:50:19.739Z,47.5
2023-01-10T09:55:38.648Z,46.9
2023-01-10T10:00:41.654Z,47.8
2023-01-10T10:06:12.953Z,48
2023-01-10T10:11:31.712Z,47.8
2023-01-10T10:16:49.624Z,47.8
2023-01-10T10:22:08.138Z,47.9
2023-01-10T10:27:26.376Z,47.2
2023-01-10T10:32:44.589Z,48.1
2023-01-10T10:38:02.819Z,47.9
2023-01-10T10:43:21.291Z,47.7
2023-01-10T10:48:39.779Z,48.1
2023-01-10T10:53:58.035Z,48.1
2023-01-10T10:59:16.541Z,47.4
2023-01-10T11:04:34.593Z,47.9
2023-01-10T11:09:53.381Z,47.5
2023-01-10T11:15:12.134Z,47.4
2023-01-10T11:20:30.741Z,47.9
2023-01-10T11:25:48.692Z,47.9
2023-01-10T11:31:07.148Z,47.2
2023-01-10T11:36:25.938Z,47.5
2023-01-10T11:41:44.168Z,48.1
2023-01-10T11:47:02.954Z,47.7
2023-01-10T11:52:21.145Z,47.9
2023-01-10T11:57:39.656Z,48.2
2023-01-10T12:02:57.853Z,47.1
2023-01-10T12:08:16.359Z,48.1
2023-01-10T12:13:34.857Z,47.6
2023-01-10T12:18:53.376Z,47.5
2023-01-10T12:23:55.956Z,47.4
2023-01-10T12:29:14.168Z,47.8
2023-01-10T12:34:32.484Z,47.9
2023-01-10T12:39:50.675Z,48.1
2023-01-10T12:45:09.196Z,47.3
2023-01-10T12:50:27.976Z,47.3
2023-01-10T12:55:46.662Z,47.4
2023-01-10T13:01:05.959Z,48.1
2023-01-10T13:06:24.652Z,47.8
2023-01-10T13:11:43.448Z,48
2023-01-10T13:17:01.969Z,48
2023-01-10T13:22:20.730Z,47.3
2023-01-10T13:27:39.578Z,47.2
2023-01-10T13:32:58.096Z,48.2
2023-01-10T13:38:16.345Z,47.8
2023-01-10T13:43:34.848Z,47.1
2023-01-10T13:48:53.086Z,47.3
2023-01-10T13:54:11.007Z,47.6
2023-01-10T13:59:29.200Z,47.6
2023-01-10T14:04:47.743Z,47.2
2023-01-10T14:10:06.266Z,44
2023-01-10T14:15:25.129Z,43.5
2023-01-10T14:20:43.642Z,43.8
2023-01-10T14:26:02.638Z,44.9
2023-01-10T14:31:20.787Z,44.8
2023-01-10T14:36:39.065Z,45.7
2023-01-10T14:41:57.548Z,45.3
2023-01-10T14:47:16.023Z,45.8
2023-01-10T14:52:34.258Z,45.9
2023-01-10T14:57:52.767Z,46.3
2023-01-10T15:03:10.963Z,46.4
2023-01-10T15:08:29.583Z,47.3
2023-01-10T15:13:48.535Z,47.1
2023-01-10T15:19:06.446Z,47.2
2023-01-10T15:24:25.011Z,47.9
2023-01-10T15:29:44.537Z,46.4
2023-01-10T15:35:03.079Z,47.4
2023-01-10T15:40:21.317Z,47
2023-01-10T15:45:39.888Z,47.2
2023-01-10T15:50:58.533Z,47.4
2023-01-10T15:56:16.764Z,46.9
2023-01-10T16:01:35.405Z,47.3
2023-01-10T16:06:53.961Z,47.5
2023-01-10T16:12:12.467Z,47.5
2023-01-10T16:17:30.687Z,46.9
2023-01-10T16:22:48.879Z,47.6
2023-01-10T16:28:06.809Z,47.7
2023-01-10T16:33:24.948Z,47.4
2023-01-10T16:38:43.146Z,47.2
2023-01-10T16:43:45.748Z,47.5
2023-01-10T16:49:03.670Z,47.5
2023-01-10T16:54:21.858Z,47.6
2023-01-10T16:59:40.086Z,46.8
2023-01-10T17:04:58.549Z,46.6
2023-01-10T17:10:17.305Z,47.4
2023-01-10T17:15:35.542Z,47.3
2023-01-10T17:20:53.776Z,47.4
2023-01-10T17:26:12.248Z,47.4
2023-01-10T17:31:31.090Z,46.9
2023-01-10T17:36:49.025Z,46.8
2023-01-10T17:42:07.812Z,47.1
2023-01-10T17:47:26.584Z,47.3
2023-01-10T17:52:44.773Z,47.3
2023-01-10T17:58:03.253Z,46.6
2023-01-10T18:03:21.776Z,47.3
2023-01-10T18:08:41.126Z,46.9
2023-01-10T18:13:59.337Z,47.3
2023-01-10T18:19:17.843Z,47.1
2023-01-10T18:24:36.129Z,47.7
2023-01-10T18:29:40.286Z,47.6
2023-01-10T18:34:59.071Z,45
2023-01-10T18:40:17.549Z,46.8
2023-01-10T18:45:36.302Z,47.2
2023-01-10T18:51:00.633Z,47.4
2023-01-10T18:56:19.101Z,47.4
2023-01-10T19:01:38.015Z,46.9
2023-01-10T19:06:40.875Z,47.4
2023-01-10T19:11:59.059Z,47.8
2023-01-10T19:17:17.289Z,48.2
2023-01-10T19:22:35.515Z,48.2
2023-01-10T19:27:53.694Z,47.9
2023-01-10T19:33:12.475Z,47.9
2023-01-10T19:38:31.379Z,48
2023-01-10T19:43:49.631Z,47.9
2023-01-10T19:49:07.559Z,47.9
2023-01-10T19:54:26.114Z,48
2023-01-10T19:59:44.587Z,48.7
2023-01-10T20:05:02.808Z,49
2023-01-10T20:10:21.569Z,49.2
2023-01-10T20:15:39.887Z,48.9
2023-01-10T20:20:58.607Z,48.5
2023-01-10T20:26:17.083Z,48.4
2023-01-10T20:31:35.391Z,49.3
2023-01-10T20:36:53.891Z,48.2
2023-01-10T20:42:12.694Z,48.5
2023-01-10T20:47:30.609Z,48.3
2023-01-10T20:52:49.079Z,49.2
2023-01-10T20:58:07.296Z,48.4
2023-01-10T21:03:25.784Z,48.4
2023-01-10T21:08:44.538Z,48.3
2023-01-10T21:13:47.416Z,49.2
2023-01-10T21:19:05.893Z,48.6
2023-01-10T21:24:24.392Z,48.5
2023-01-10T21:29:42.914Z,49.2
2023-01-10T21:35:01.114Z,48.9
2023-01-10T21:40:19.332Z,49.3
2023-01-10T21:45:38.109Z,49.4
2023-01-10T21:50:56.398Z,49.3
2023-01-10T21:56:14.380Z,48.7
2023-01-10T22:01:32.895Z,48.8
2023-01-10T22:06:54.670Z,49.4
2023-01-10T22:12:12.610Z,49.7
2023-01-10T22:17:30.885Z,49.8
2023-01-10T22:22:49.382Z,49.8
2023-01-10T22:28:07.866Z,49.1
2023-01-10T22:33:26.384Z,49.7
2023-01-10T22:38:45.146Z,49.2
2023-01-10T22:44:03.628Z,49.9
2023-01-10T22:49:22.412Z,49.8
2023-01-10T22:54:40.879Z,49.4
2023-01-10T22:59:59.362Z,49.9
2023-01-10T23:05:17.894Z,50
2023-01-10T23:10:36.086Z,50
2023-01-10T23:15:54.850Z,49.3
2023-01-10T23:21:13.635Z,50
2023-01-10T23:26:31.847Z,49.4
2023-01-10T23:31:50.230Z,49.3
2023-01-10T23:37:08.462Z,49.7
2023-01-10T23:42:26.924Z,49.9
2023-01-10T23:47:45.694Z,50
2023-01-10T23:53:04.210Z,49.5
2023-01-10T23:58:22.971Z,50.2
